sensor_id;sensor_type;location;lat;lon;timestamp;pressure;altitude;pressure_sealevel;temperature;humidity
71107;BME280;58763;47.982;11.516;2022-10-22T00:01:03;93913.97;;;14.04;85.25
71107;BME280;58763;47.982;11.516;2022-10-22T00:03:29;93918.16;;;14.10;84.79
71107;BME280;58763;47.982;11.516;2022-10-22T00:05:55;93916.56;;;14.09;85.04
71107;BME280;58763;47.982;11.516;2022-10-22T00:08:20;93909.38;;;14.13;84.31
71107;BME280;58763;47.982;11.516;2022-10-22T00:10:46;93915.50;;;14.19;84.46
71107;BME280;58763;47.982;11.516;2022-10-22T00:13:12;93921.19;;;14.09;84.65
71107;BME280;58763;47.982;11.516;2022-10-22T00:15:38;93922.66;;;14.15;84.68
71107;BME280;58763;47.982;11.516;2022-10-22T00:18:03;93928.53;;;14.08;84.65
71107;BME280;58763;47.982;11.516;2022-10-22T00:20:29;93930.50;;;14.16;84.52
71107;BME280;58763;47.982;11.516;2022-10-22T00:22:54;93933.72;;;14.18;84.23
71107;BME280;58763;47.982;11.516;2022-10-22T00:25:20;93938.50;;;14.21;84.02
71107;BME280;58763;47.982;11.516;2022-10-22T00:27:46;93945.41;;;14.19;84.19
71107;BME280;58763;47.982;11.516;2022-10-22T00:30:11;93948.75;;;14.24;83.74
71107;BME280;58763;47.982;11.516;2022-10-22T00:32:37;93962.84;;;14.26;83.07
71107;BME280;58763;47.982;11.516;2022-10-22T00:35:03;93970.78;;;14.14;83.11
71107;BME280;58763;47.982;11.516;2022-10-22T00:37:29;93976.06;;;13.88;84.20
71107;BME280;58763;47.982;11.516;2022-10-22T00:39:55;93984.69;;;13.82;85.29
71107;BME280;58763;47.982;11.516;2022-10-22T00:42:24;93983.94;;;13.68;86.07
71107;BME280;58763;47.982;11.516;2022-10-22T00:45:03;93996.66;;;13.37;88.62
71107;BME280;58763;47.982;11.516;2022-10-22T00:47:38;93997.16;;;13.39;88.97
71107;BME280;58763;47.982;11.516;2022-10-22T00:50:09;94007.56;;;13.23;89.91
71107;BME280;58763;47.982;11.516;2022-10-22T00:52:36;93994.50;;;13.25;90.06
71107;BME280;58763;47.982;11.516;2022-10-22T00:55:03;94008.06;;;13.25;89.67
71107;BME280;58763;47.982;11.516;2022-10-22T00:57:28;94007.16;;;13.02;90.29
71107;BME280;58763;47.982;11.516;2022-10-22T00:59:55;94011.50;;;13.03;90.63
71107;BME280;58763;47.982;11.516;2022-10-22T01:02:21;94004.38;;;12.94;91.17
71107;BME280;58763;47.982;11.516;2022-10-22T01:04:47;94012.09;;;13.00;90.85
71107;BME280;58763;47.982;11.516;2022-10-22T01:07:18;94003.38;;;12.90;91.56
71107;BME280;58763;47.982;11.516;2022-10-22T01:10:34;93997.84;;;12.95;91.62
71107;BME280;58763;47.982;11.516;2022-10-22T01:13:16;93989.56;;;13.00;91.79
71107;BME280;58763;47.982;11.516;2022-10-22T01:15:40;93989.22;;;13.06;91.63
71107;BME280;58763;47.982;11.516;2022-10-22T01:18:35;93973.69;;;13.21;91.26
71107;BME280;58763;47.982;11.516;2022-10-22T01:21:08;93974.56;;;13.30;90.43
71107;BME280;58763;47.982;11.516;2022-10-22T01:31:45;93983.38;;;12.99;92.67
71107;BME280;58763;47.982;11.516;2022-10-22T01:34:15;93981.56;;;12.95;93.47
71107;BME280;58763;47.982;11.516;2022-10-22T01:36:43;93989.09;;;12.84;93.77
71107;BME280;58763;47.982;11.516;2022-10-22T01:39:11;93990.47;;;12.95;93.17
71107;BME280;58763;47.982;11.516;2022-10-22T01:41:38;93986.06;;;12.99;93.09
71107;BME280;58763;47.982;11.516;2022-10-22T01:44:04;93979.50;;;13.14;92.21
71107;BME280;58763;47.982;11.516;2022-10-22T01:46:30;93983.31;;;13.27;91.55
71107;BME280;58763;47.982;11.516;2022-10-22T01:49:24;93989.44;;;13.32;91.61
71107;BME280;58763;47.982;11.516;2022-10-22T01:52:02;93988.56;;;13.45;90.48
71107;BME280;58763;47.982;11.516;2022-10-22T02:00:25;94006.94;;;13.62;89.19
71107;BME280;58763;47.982;11.516;2022-10-22T02:03:10;93997.53;;;13.46;90.45
71107;BME280;58763;47.982;11.516;2022-10-22T02:05:54;93997.16;;;13.61;89.73
71107;BME280;58763;47.982;11.516;2022-10-22T02:08:26;94002.47;;;13.66;89.42
71107;BME280;58763;47.982;11.516;2022-10-22T02:10:53;94011.44;;;13.66;89.27
71107;BME280;58763;47.982;11.516;2022-10-22T02:13:29;94014.69;;;13.77;88.84
71107;BME280;58763;47.982;11.516;2022-10-22T02:15:58;94017.13;;;13.78;88.80
71107;BME280;58763;47.982;11.516;2022-10-22T02:18:29;94020.31;;;13.80;88.40
71107;BME280;58763;47.982;11.516;2022-10-22T02:20:56;94033.72;;;13.77;88.18
71107;BME280;58763;47.982;11.516;2022-10-22T02:23:23;94031.19;;;13.80;88.59
71107;BME280;58763;47.982;11.516;2022-10-22T02:25:55;94040.72;;;13.69;88.61
71107;BME280;58763;47.982;11.516;2022-10-22T02:28:32;94051.50;;;13.61;88.71
71107;BME280;58763;47.982;11.516;2022-10-22T02:31:15;94051.22;;;13.62;88.85
71107;BME280;58763;47.982;11.516;2022-10-22T02:33:46;94053.00;;;13.67;89.40
71107;BME280;58763;47.982;11.516;2022-10-22T02:36:14;94058.94;;;13.69;88.73
71107;BME280;58763;47.982;11.516;2022-10-22T02:38:40;94072.88;;;13.40;90.11
71107;BME280;58763;47.982;11.516;2022-10-22T02:41:06;94073.88;;;13.44;89.99
71107;BME280;58763;47.982;11.516;2022-10-22T02:43:40;94083.06;;;13.35;90.33
71107;BME280;58763;47.982;11.516;2022-10-22T02:46:06;94087.19;;;13.32;90.52
71107;BME280;58763;47.982;11.516;2022-10-22T02:48:31;94088.13;;;13.28;90.88
71107;BME280;58763;47.982;11.516;2022-10-22T02:50:57;94082.78;;;13.23;90.64
71107;BME280;58763;47.982;11.516;2022-10-22T02:53:22;94079.66;;;13.29;91.07
71107;BME280;58763;47.982;11.516;2022-10-22T02:55:48;94076.19;;;13.37;90.91
71107;BME280;58763;47.982;11.516;2022-10-22T02:58:13;94073.09;;;13.44;90.27
71107;BME280;58763;47.982;11.516;2022-10-22T03:00:39;94072.91;;;13.27;90.63
71107;BME280;58763;47.982;11.516;2022-10-22T03:03:04;94070.69;;;13.29;91.17
71107;BME280;58763;47.982;11.516;2022-10-22T03:05:30;94068.78;;;13.29;90.66
71107;BME280;58763;47.982;11.516;2022-10-22T03:07:55;94071.63;;;13.24;90.85
71107;BME280;58763;47.982;11.516;2022-10-22T03:10:21;94069.31;;;13.18;91.41
71107;BME280;58763;47.982;11.516;2022-10-22T03:12:47;94059.44;;;13.22;91.60
71107;BME280;58763;47.982;11.516;2022-10-22T03:15:12;94063.97;;;13.26;91.27
71107;BME280;58763;47.982;11.516;2022-10-22T03:17:38;94064.59;;;13.23;91.16
71107;BME280;58763;47.982;11.516;2022-10-22T03:20:03;94079.38;;;13.17;91.49
71107;BME280;58763;47.982;11.516;2022-10-22T03:22:31;94081.06;;;13.27;90.77
71107;BME280;58763;47.982;11.516;2022-10-22T03:25:04;94086.69;;;13.16;91.06
71107;BME280;58763;47.982;11.516;2022-10-22T03:27:32;94086.84;;;13.11;91.18
71107;BME280;58763;47.982;11.516;2022-10-22T03:29:59;94093.75;;;13.04;91.34
71107;BME280;58763;47.982;11.516;2022-10-22T03:32:25;94096.44;;;13.04;91.06
71107;BME280;58763;47.982;11.516;2022-10-22T03:34:51;94105.00;;;12.97;90.67
71107;BME280;58763;47.982;11.516;2022-10-22T03:37:17;94096.06;;;12.97;90.11
71107;BME280;58763;47.982;11.516;2022-10-22T03:39:42;94105.88;;;12.79;89.47
71107;BME280;58763;47.982;11.516;2022-10-22T03:42:08;94099.69;;;12.79;88.06
71107;BME280;58763;47.982;11.516;2022-10-22T03:44:36;94110.22;;;12.80;88.12
71107;BME280;58763;47.982;11.516;2022-10-22T03:47:03;94105.59;;;12.81;87.27
71107;BME280;58763;47.982;11.516;2022-10-22T03:49:29;94114.13;;;12.74;87.33
71107;BME280;58763;47.982;11.516;2022-10-22T03:51:54;94116.44;;;12.81;87.00
71107;BME280;58763;47.982;11.516;2022-10-22T03:54:19;94128.72;;;12.92;87.45
71107;BME280;58763;47.982;11.516;2022-10-22T03:56:45;94138.34;;;12.84;88.55
71107;BME280;58763;47.982;11.516;2022-10-22T03:59:10;94148.88;;;12.72;88.35
71107;BME280;58763;47.982;11.516;2022-10-22T04:01:37;94141.53;;;12.59;88.66
71107;BME280;58763;47.982;11.516;2022-10-22T04:04:03;94136.63;;;12.61;87.88
71107;BME280;58763;47.982;11.516;2022-10-22T04:06:29;94138.81;;;12.59;87.98
71107;BME280;58763;47.982;11.516;2022-10-22T04:08:55;94143.84;;;12.52;87.73
71107;BME280;58763;47.982;11.516;2022-10-22T04:11:21;94135.34;;;12.40;87.56
71107;BME280;58763;47.982;11.516;2022-10-22T04:13:46;94131.81;;;12.26;87.57
71107;BME280;58763;47.982;11.516;2022-10-22T04:16:19;94126.84;;;12.14;89.00
71107;BME280;58763;47.982;11.516;2022-10-22T04:18:46;94127.75;;;12.10;88.80
71107;BME280;58763;47.982;11.516;2022-10-22T04:21:14;94131.13;;;12.02;88.96
71107;BME280;58763;47.982;11.516;2022-10-22T04:23:45;94121.25;;;11.92;88.53
71107;BME280;58763;47.982;11.516;2022-10-22T04:26:11;94119.13;;;11.89;88.93
71107;BME280;58763;47.982;11.516;2022-10-22T04:28:36;94117.75;;;11.92;89.01
71107;BME280;58763;47.982;11.516;2022-10-22T04:31:14;94112.91;;;11.89;89.15
71107;BME280;58763;47.982;11.516;2022-10-22T04:33:40;94123.66;;;11.94;89.07
71107;BME280;58763;47.982;11.516;2022-10-22T04:36:16;94117.88;;;12.00;88.54
71107;BME280;58763;47.982;11.516;2022-10-22T04:38:43;94120.06;;;11.98;88.43
71107;BME280;58763;47.982;11.516;2022-10-22T04:41:14;94118.16;;;11.99;88.13
71107;BME280;58763;47.982;11.516;2022-10-22T04:43:40;94111.94;;;11.98;88.25
71107;BME280;58763;47.982;11.516;2022-10-22T04:46:07;94110.44;;;11.92;88.56
71107;BME280;58763;47.982;11.516;2022-10-22T04:48:38;94100.16;;;11.89;89.04
71107;BME280;58763;47.982;11.516;2022-10-22T04:51:05;94097.47;;;11.89;88.92
71107;BME280;58763;47.982;11.516;2022-10-22T04:53:32;94099.44;;;11.84;88.91
71107;BME280;58763;47.982;11.516;2022-10-22T04:58:44;94091.03;;;11.66;89.55
71107;BME280;58763;47.982;11.516;2022-10-22T05:01:15;94087.66;;;11.74;89.22
71107;BME280;58763;47.982;11.516;2022-10-22T05:03:41;94100.75;;;11.86;88.31
71107;BME280;58763;47.982;11.516;2022-10-22T05:06:07;94105.28;;;11.91;87.84
71107;BME280;58763;47.982;11.516;2022-10-22T05:08:33;94114.16;;;11.77;87.92
71107;BME280;58763;47.982;11.516;2022-10-22T05:10:59;94113.59;;;11.81;87.71
71107;BME280;58763;47.982;11.516;2022-10-22T05:13:25;94100.69;;;11.72;87.88
71107;BME280;58763;47.982;11.516;2022-10-22T05:15:50;94111.03;;;11.70;88.28
71107;BME280;58763;47.982;11.516;2022-10-22T05:18:16;94106.94;;;11.73;88.29
71107;BME280;58763;47.982;11.516;2022-10-22T05:20:42;94119.59;;;11.77;88.12
71107;BME280;58763;47.982;11.516;2022-10-22T05:23:07;94118.34;;;11.70;88.22
71107;BME280;58763;47.982;11.516;2022-10-22T05:25:39;94125.56;;;11.56;88.22
71107;BME280;58763;47.982;11.516;2022-10-22T05:28:05;94134.25;;;11.34;89.71
71107;BME280;58763;47.982;11.516;2022-10-22T05:30:30;94131.09;;;11.27;90.24
71107;BME280;58763;47.982;11.516;2022-10-22T05:32:56;94128.53;;;11.17;90.91
71107;BME280;58763;47.982;11.516;2022-10-22T05:35:21;94129.63;;;11.16;91.07
71107;BME280;58763;47.982;11.516;2022-10-22T05:37:47;94136.06;;;11.20;91.22
71107;BME280;58763;47.982;11.516;2022-10-22T05:40:12;94146.72;;;11.11;91.52
71107;BME280;58763;47.982;11.516;2022-10-22T05:42:38;94150.25;;;11.12;91.66
71107;BME280;58763;47.982;11.516;2022-10-22T05:45:03;94151.06;;;11.13;90.99
71107;BME280;58763;47.982;11.516;2022-10-22T05:47:29;94139.88;;;11.19;90.53
71107;BME280;58763;47.982;11.516;2022-10-22T05:49:55;94141.84;;;11.32;90.14
71107;BME280;58763;47.982;11.516;2022-10-22T05:52:23;94145.50;;;11.41;89.71
71107;BME280;58763;47.982;11.516;2022-10-22T05:54:49;94148.59;;;11.53;89.02
71107;BME280;58763;47.982;11.516;2022-10-22T05:57:15;94141.53;;;11.57;88.50
71107;BME280;58763;47.982;11.516;2022-10-22T05:59:40;94147.03;;;11.71;87.81
71107;BME280;58763;47.982;11.516;2022-10-22T06:02:08;94139.06;;;11.79;87.41
71107;BME280;58763;47.982;11.516;2022-10-22T06:04:33;94129.91;;;11.75;87.33
71107;BME280;58763;47.982;11.516;2022-10-22T06:06:59;94131.75;;;11.80;87.18
71107;BME280;58763;47.982;11.516;2022-10-22T06:09:33;94136.19;;;11.90;86.83
71107;BME280;58763;47.982;11.516;2022-10-22T06:12:00;94135.69;;;11.88;86.39
71107;BME280;58763;47.982;11.516;2022-10-22T06:14:25;94138.03;;;11.75;87.23
71107;BME280;58763;47.982;11.516;2022-10-22T06:16:51;94139.44;;;11.73;87.64
71107;BME280;58763;47.982;11.516;2022-10-22T06:19:19;94153.31;;;11.66;88.49
71107;BME280;58763;47.982;11.516;2022-10-22T06:21:45;94156.59;;;11.63;88.02
71107;BME280;58763;47.982;11.516;2022-10-22T06:24:11;94172.53;;;11.65;88.17
71107;BME280;58763;47.982;11.516;2022-10-22T06:26:37;94170.91;;;11.69;87.82
71107;BME280;58763;47.982;11.516;2022-10-22T06:29:03;94175.00;;;11.85;87.32
71107;BME280;58763;47.982;11.516;2022-10-22T06:31:29;94176.16;;;11.98;86.61
71107;BME280;58763;47.982;11.516;2022-10-22T06:34:06;94188.13;;;11.97;87.00
71107;BME280;58763;47.982;11.516;2022-10-22T06:36:33;94186.06;;;11.89;86.62
71107;BME280;58763;47.982;11.516;2022-10-22T06:38:59;94178.16;;;11.73;87.06
71107;BME280;58763;47.982;11.516;2022-10-22T06:41:24;94183.66;;;11.68;88.09
71107;BME280;58763;47.982;11.516;2022-10-22T06:43:50;94185.53;;;11.68;88.14
71107;BME280;58763;47.982;11.516;2022-10-22T06:46:19;94186.56;;;11.48;88.99
71107;BME280;58763;47.982;11.516;2022-10-22T06:48:53;94182.28;;;11.47;88.35
71107;BME280;58763;47.982;11.516;2022-10-22T06:51:19;94183.97;;;11.43;88.69
71107;BME280;58763;47.982;11.516;2022-10-22T06:53:46;94174.16;;;11.47;88.32
71107;BME280;58763;47.982;11.516;2022-10-22T06:56:15;94184.75;;;11.44;88.70
71107;BME280;58763;47.982;11.516;2022-10-22T06:58:41;94174.97;;;11.48;88.48
71107;BME280;58763;47.982;11.516;2022-10-22T07:01:09;94177.06;;;11.51;88.31
71107;BME280;58763;47.982;11.516;2022-10-22T07:03:36;94184.91;;;11.52;88.46
71107;BME280;58763;47.982;11.516;2022-10-22T07:06:05;94198.66;;;11.56;88.47
71107;BME280;58763;47.982;11.516;2022-10-22T07:08:31;94195.81;;;11.47;89.05
71107;BME280;58763;47.982;11.516;2022-10-22T07:11:13;94201.34;;;11.37;88.97
71107;BME280;58763;47.982;11.516;2022-10-22T07:13:40;94206.25;;;11.35;88.71
71107;BME280;58763;47.982;11.516;2022-10-22T07:16:06;94207.94;;;11.31;88.83
71107;BME280;58763;47.982;11.516;2022-10-22T07:18:32;94210.91;;;11.30;89.60
71107;BME280;58763;47.982;11.516;2022-10-22T07:20:58;94210.91;;;11.30;88.66
71107;BME280;58763;47.982;11.516;2022-10-22T07:23:24;94220.34;;;11.32;88.74
71107;BME280;58763;47.982;11.516;2022-10-22T07:25:50;94219.78;;;11.35;89.17
71107;BME280;58763;47.982;11.516;2022-10-22T07:28:16;94234.13;;;11.36;89.43
71107;BME280;58763;47.982;11.516;2022-10-22T07:30:41;94236.78;;;11.41;89.69
71107;BME280;58763;47.982;11.516;2022-10-22T07:33:07;94245.13;;;11.44;89.53
71107;BME280;58763;47.982;11.516;2022-10-22T07:35:33;94248.34;;;11.46;89.69
71107;BME280;58763;47.982;11.516;2022-10-22T07:38:00;94247.47;;;11.51;89.64
71107;BME280;58763;47.982;11.516;2022-10-22T07:40:25;94255.78;;;11.59;89.12
71107;BME280;58763;47.982;11.516;2022-10-22T07:42:51;94262.75;;;11.65;88.56
71107;BME280;58763;47.982;11.516;2022-10-22T07:45:17;94262.66;;;11.75;88.36
71107;BME280;58763;47.982;11.516;2022-10-22T07:47:42;94272.63;;;11.80;87.83
71107;BME280;58763;47.982;11.516;2022-10-22T07:50:08;94269.59;;;11.82;88.52
71107;BME280;58763;47.982;11.516;2022-10-22T07:52:33;94282.66;;;11.98;87.51
71107;BME280;58763;47.982;11.516;2022-10-22T07:54:59;94281.22;;;12.06;87.05
71107;BME280;58763;47.982;11.516;2022-10-22T07:57:25;94270.25;;;12.16;86.22
71107;BME280;58763;47.982;11.516;2022-10-22T07:59:50;94278.38;;;12.16;86.76
71107;BME280;58763;47.982;11.516;2022-10-22T08:02:16;94276.69;;;12.20;86.37
71107;BME280;58763;47.982;11.516;2022-10-22T08:04:41;94288.03;;;12.22;86.13
71107;BME280;58763;47.982;11.516;2022-10-22T08:07:07;94279.53;;;12.28;86.15
71107;BME280;58763;47.982;11.516;2022-10-22T08:09:32;94284.13;;;12.28;86.64
71107;BME280;58763;47.982;11.516;2022-10-22T08:11:58;94292.50;;;12.31;86.01
71107;BME280;58763;47.982;11.516;2022-10-22T08:14:24;94299.91;;;12.44;85.68
71107;BME280;58763;47.982;11.516;2022-10-22T08:16:49;94293.75;;;12.39;85.70
71107;BME280;58763;47.982;11.516;2022-10-22T08:19:15;94299.47;;;12.37;86.20
71107;BME280;58763;47.982;11.516;2022-10-22T08:21:46;94304.00;;;12.42;85.57
71107;BME280;58763;47.982;11.516;2022-10-22T08:24:12;94309.50;;;12.37;85.02
71107;BME280;58763;47.982;11.516;2022-10-22T08:26:38;94315.22;;;12.35;85.26
71107;BME280;58763;47.982;11.516;2022-10-22T08:29:04;94318.59;;;12.46;85.70
71107;BME280;58763;47.982;11.516;2022-10-22T08:31:29;94321.91;;;12.43;85.81
71107;BME280;58763;47.982;11.516;2022-10-22T08:33:55;94323.22;;;12.45;85.84
71107;BME280;58763;47.982;11.516;2022-10-22T08:36:21;94329.16;;;12.47;85.08
71107;BME280;58763;47.982;11.516;2022-10-22T08:38:46;94320.88;;;12.39;85.93
71107;BME280;58763;47.982;11.516;2022-10-22T08:49:03;94335.97;;;12.45;86.24
71107;BME280;58763;47.982;11.516;2022-10-22T08:51:33;94324.09;;;12.41;86.01
71107;BME280;58763;47.982;11.516;2022-10-22T09:00:01;94345.41;;;12.47;86.39
71107;BME280;58763;47.982;11.516;2022-10-22T09:05:24;94344.97;;;12.59;87.14
71107;BME280;58763;47.982;11.516;2022-10-22T09:07:54;94345.28;;;12.58;86.91
71107;BME280;58763;47.982;11.516;2022-10-22T09:10:24;94346.75;;;12.69;86.64
71107;BME280;58763;47.982;11.516;2022-10-22T09:12:51;94350.28;;;12.69;86.21
71107;BME280;58763;47.982;11.516;2022-10-22T09:15:18;94351.78;;;12.75;86.33
71107;BME280;58763;47.982;11.516;2022-10-22T09:17:56;94353.03;;;12.83;85.69
71107;BME280;58763;47.982;11.516;2022-10-22T09:23:11;94376.78;;;12.91;85.54
71107;BME280;58763;47.982;11.516;2022-10-22T09:25:41;94370.47;;;12.95;85.90
71107;BME280;58763;47.982;11.516;2022-10-22T09:28:08;94373.41;;;12.99;85.73
71107;BME280;58763;47.982;11.516;2022-10-22T09:30:35;94375.78;;;13.05;85.60
71107;BME280;58763;47.982;11.516;2022-10-22T09:35:33;94384.47;;;13.02;86.13
71107;BME280;58763;47.982;11.516;2022-10-22T09:38:06;94383.34;;;13.08;85.82
71107;BME280;58763;47.982;11.516;2022-10-22T09:40:41;94383.53;;;13.12;85.80
71107;BME280;58763;47.982;11.516;2022-10-22T09:43:11;94390.22;;;13.20;85.26
71107;BME280;58763;47.982;11.516;2022-10-22T09:45:37;94390.22;;;13.20;85.70
71107;BME280;58763;47.982;11.516;2022-10-22T09:50:42;94391.06;;;13.34;84.40
71107;BME280;58763;47.982;11.516;2022-10-22T09:53:28;94393.84;;;13.29;84.70
71107;BME280;58763;47.982;11.516;2022-10-22T09:55:56;94400.84;;;13.35;85.17
71107;BME280;58763;47.982;11.516;2022-10-22T09:58:23;94400.53;;;13.36;84.76
71107;BME280;58763;47.982;11.516;2022-10-22T10:00:55;94398.53;;;13.42;84.91
71107;BME280;58763;47.982;11.516;2022-10-22T10:03:23;94400.38;;;13.46;84.97
71107;BME280;58763;47.982;11.516;2022-10-22T10:05:56;94401.56;;;13.54;85.51
71107;BME280;58763;47.982;11.516;2022-10-22T10:08:22;94392.53;;;13.58;85.27
71107;BME280;58763;47.982;11.516;2022-10-22T10:11:11;94393.06;;;13.74;84.75
71107;BME280;58763;47.982;11.516;2022-10-22T10:14:34;94388.56;;;13.83;85.52
71107;BME280;58763;47.982;11.516;2022-10-22T10:16:57;94386.97;;;14.09;84.61
71107;BME280;58763;47.982;11.516;2022-10-22T10:19:55;94387.66;;;14.15;84.38
71107;BME280;58763;47.982;11.516;2022-10-22T10:23:02;94395.41;;;14.21;85.25
71107;BME280;58763;47.982;11.516;2022-10-22T10:30:53;94379.69;;;14.45;83.26
71107;BME280;58763;47.982;11.516;2022-10-22T10:33:32;94384.63;;;14.57;81.95
71107;BME280;58763;47.982;11.516;2022-10-22T10:36:11;94389.22;;;14.84;82.17
71107;BME280;58763;47.982;11.516;2022-10-22T10:44:13;94373.66;;;15.20;80.38
71107;BME280;58763;47.982;11.516;2022-10-22T10:49:34;94374.00;;;15.71;79.75
71107;BME280;58763;47.982;11.516;2022-10-22T10:54:53;94381.09;;;16.12;77.10
71107;BME280;58763;47.982;11.516;2022-10-22T11:00:17;94374.00;;;16.50;77.71
71107;BME280;58763;47.982;11.516;2022-10-22T11:05:30;94372.81;;;16.73;76.37
71107;BME280;58763;47.982;11.516;2022-10-22T11:08:16;94369.25;;;16.64;70.17
71107;BME280;58763;47.982;11.516;2022-10-22T11:16:04;94367.34;;;16.73;72.09
71107;BME280;58763;47.982;11.516;2022-10-22T11:18:48;94368.31;;;16.77;71.32
71107;BME280;58763;47.982;11.516;2022-10-22T11:24:22;94366.41;;;16.86;69.55
71107;BME280;58763;47.982;11.516;2022-10-22T11:27:16;94365.94;;;17.10;71.03
71107;BME280;58763;47.982;11.516;2022-10-22T11:29:49;94370.25;;;16.94;68.49
71107;BME280;58763;47.982;11.516;2022-10-22T11:32:19;94374.13;;;17.10;70.79
71107;BME280;58763;47.982;11.516;2022-10-22T11:34:50;94368.50;;;17.15;71.41
71107;BME280;58763;47.982;11.516;2022-10-22T11:37:19;94367.34;;;16.90;70.04
71107;BME280;58763;47.982;11.516;2022-10-22T11:39:50;94366.91;;;17.05;71.32
71107;BME280;58763;47.982;11.516;2022-10-22T11:45:00;94359.00;;;17.38;69.86
71107;BME280;58763;47.982;11.516;2022-10-22T11:47:30;94370.59;;;17.52;69.46
71107;BME280;58763;47.982;11.516;2022-10-22T11:52:59;94357.34;;;17.80;68.20
71107;BME280;58763;47.982;11.516;2022-10-22T12:08:50;94364.59;;;17.67;64.91
71107;BME280;58763;47.982;11.516;2022-10-22T12:11:38;94360.91;;;17.63;64.52
71107;BME280;58763;47.982;11.516;2022-10-22T12:16:47;94360.84;;;17.89;64.83
71107;BME280;58763;47.982;11.516;2022-10-22T12:19:37;94358.16;;;18.18;64.62
71107;BME280;58763;47.982;11.516;2022-10-22T12:24:41;94363.16;;;18.25;64.25
71107;BME280;58763;47.982;11.516;2022-10-22T12:29:41;94347.63;;;18.37;62.48
71107;BME280;58763;47.982;11.516;2022-10-22T12:32:12;94351.44;;;18.07;61.67
71107;BME280;58763;47.982;11.516;2022-10-22T12:34:44;94354.13;;;17.78;62.34
71107;BME280;58763;47.982;11.516;2022-10-22T12:37:12;94346.91;;;17.65;61.73
71107;BME280;58763;47.982;11.516;2022-10-22T12:39:38;94349.31;;;17.75;62.61
71107;BME280;58763;47.982;11.516;2022-10-22T12:42:04;94343.19;;;17.78;63.49
71107;BME280;58763;47.982;11.516;2022-10-22T12:44:32;94340.97;;;17.63;61.57
71107;BME280;58763;47.982;11.516;2022-10-22T12:46:58;94337.44;;;17.62;62.40
71107;BME280;58763;47.982;11.516;2022-10-22T12:49:32;94334.22;;;17.69;62.82
71107;BME280;58763;47.982;11.516;2022-10-22T12:52:02;94334.25;;;17.52;61.76
71107;BME280;58763;47.982;11.516;2022-10-22T12:54:31;94337.28;;;17.50;62.64
71107;BME280;58763;47.982;11.516;2022-10-22T12:56:57;94329.72;;;17.56;63.22
71107;BME280;58763;47.982;11.516;2022-10-22T12:59:25;94334.53;;;17.76;64.18
71107;BME280;58763;47.982;11.516;2022-10-22T13:01:51;94335.28;;;17.85;63.62
71107;BME280;58763;47.982;11.516;2022-10-22T13:09:46;94338.25;;;18.09;61.74
71107;BME280;58763;47.982;11.516;2022-10-22T13:12:12;94336.47;;;18.13;61.13
71107;BME280;58763;47.982;11.516;2022-10-22T13:14:43;94333.94;;;18.00;61.67
71107;BME280;58763;47.982;11.516;2022-10-22T13:17:18;94331.69;;;18.02;62.96
71107;BME280;58763;47.982;11.516;2022-10-22T13:25:28;94323.66;;;17.97;60.55
71107;BME280;58763;47.982;11.516;2022-10-22T13:30:32;94325.53;;;18.05;60.59
71107;BME280;58763;47.982;11.516;2022-10-22T13:33:00;94323.63;;;18.05;61.03
71107;BME280;58763;47.982;11.516;2022-10-22T13:35:30;94325.59;;;18.25;60.84
71107;BME280;58763;47.982;11.516;2022-10-22T13:37:57;94320.84;;;18.43;58.58
71107;BME280;58763;47.982;11.516;2022-10-22T13:40:23;94331.72;;;18.60;57.76
71107;BME280;58763;47.982;11.516;2022-10-22T13:42:49;94327.28;;;18.76;57.52
71107;BME280;58763;47.982;11.516;2022-10-22T13:45:15;94320.06;;;18.42;56.52
71107;BME280;58763;47.982;11.516;2022-10-22T13:47:44;94324.50;;;18.55;57.99
71107;BME280;58763;47.982;11.516;2022-10-22T13:50:15;94319.38;;;18.75;57.61
71107;BME280;58763;47.982;11.516;2022-10-22T13:52:48;94325.28;;;18.85;57.82
71107;BME280;58763;47.982;11.516;2022-10-22T13:57:50;94318.34;;;18.88;56.49
71107;BME280;58763;47.982;11.516;2022-10-22T14:00:20;94328.41;;;18.96;57.10
71107;BME280;58763;47.982;11.516;2022-10-22T14:02:48;94324.59;;;18.88;57.08
71107;BME280;58763;47.982;11.516;2022-10-22T14:05:16;94336.56;;;18.84;56.34
71107;BME280;58763;47.982;11.516;2022-10-22T14:07:42;94331.22;;;18.67;55.43
71107;BME280;58763;47.982;11.516;2022-10-22T14:10:21;94338.44;;;18.71;55.55
71107;BME280;58763;47.982;11.516;2022-10-22T14:12:48;94329.03;;;18.81;55.92
71107;BME280;58763;47.982;11.516;2022-10-22T14:15:15;94333.16;;;18.87;56.09
71107;BME280;58763;47.982;11.516;2022-10-22T14:17:44;94332.97;;;18.71;56.59
71107;BME280;58763;47.982;11.516;2022-10-22T14:20:15;94339.19;;;18.80;56.14
71107;BME280;58763;47.982;11.516;2022-10-22T14:22:47;94335.44;;;18.85;56.82
71107;BME280;58763;47.982;11.516;2022-10-22T14:25:15;94341.38;;;18.87;56.62
71107;BME280;58763;47.982;11.516;2022-10-22T14:27:41;94339.19;;;18.80;55.75
71107;BME280;58763;47.982;11.516;2022-10-22T14:30:08;94345.25;;;18.86;55.99
71107;BME280;58763;47.982;11.516;2022-10-22T14:32:33;94349.69;;;18.78;55.36
71107;BME280;58763;47.982;11.516;2022-10-22T14:34:59;94345.66;;;18.76;56.30
71107;BME280;58763;47.982;11.516;2022-10-22T14:37:25;94351.41;;;18.83;56.09
71107;BME280;58763;47.982;11.516;2022-10-22T14:39:51;94344.72;;;18.72;55.54
71107;BME280;58763;47.982;11.516;2022-10-22T14:42:24;94353.69;;;18.51;56.98
71107;BME280;58763;47.982;11.516;2022-10-22T14:44:50;94347.69;;;18.58;56.91
71107;BME280;58763;47.982;11.516;2022-10-22T14:47:16;94349.53;;;18.45;55.05
71107;BME280;58763;47.982;11.516;2022-10-22T14:49:41;94349.81;;;18.44;57.27
71107;BME280;58763;47.982;11.516;2022-10-22T14:52:07;94361.41;;;18.20;56.92
71107;BME280;58763;47.982;11.516;2022-10-22T14:54:33;94355.06;;;18.28;57.70